Lucy Foss — WDE8734 — position and weather

sailwx.info

Track history (hours):
 
Tides and Currents Weather Stations Pressure Air Temp Water Temp Dewpoint Dewpoint Depression Visibility Wind Speed Wind Dir Waves Ship Positions

Lucy Foss

Owner: Foss Maritime Company, Seattle, WA. More information available from US FCC via Universal Licensing System and Coast Guard Vessel Documentation Center.

Last reported at 2018-Jun-25 15:11 UTC. Time now 2018-Jun-25 15:49 UTC.
Position N 33°54' W 118°28'.

Length 20 m; draft 3 m.

Type: Port tender. MMSI: 367408930.

Date/timePositionNaut miles runAvg speedWind from/ knotsBaromVisibWave heightAir tempDewpointWater temp
2018-Jun-25 15:11N 33°54' W 118°28'1 3.8
2018-Jun-25 15:00N 33°54' W 118°28'1 2.5
2018-Jun-25 14:29N 33°54' W 118°30'3 5.2
2018-Jun-25 13:55N 33°52' W 118°27'2 1.4
2018-Jun-25 12:31N 33°54' W 118°27'0 3.3
2018-Jun-25 12:30N 33°54' W 118°27'0 0.3
2018-Jun-25 11:06N 33°54' W 118°27'0 0.0
2018-Jun-25 10:48N 33°54' W 118°27'0 0.0
2018-Jun-25 10:30N 33°54' W 118°27'  
2018-Jun-22 01:29N 33°51' W 118°24'0 0.0
2018-Jun-22 00:59N 33°51' W 118°24'0 0.0
2018-Jun-21 15:37N 33°51' W 118°24'5 0.1
2018-Jun-19 14:11N 33°54' W 118°27'  
Track history (hours):
 
Tides and Currents Weather Stations Pressure Air Temp Water Temp Dewpoint Dewpoint Depression Visibility Wind Speed Wind Dir Waves Ship Positions

Lucy Foss

Owner: Foss Maritime Company, Seattle, WA. More information available from US FCC via Universal Licensing System and Coast Guard Vessel Documentation Center.

Last reported at 2018-Jun-25 15:11 UTC. Time now 2018-Jun-25 15:49 UTC.
Position N 33°54' W 118°28'.

Length 20 m; draft 3 m.

Type: Port tender. MMSI: 367408930.

Date/timePositionNaut miles runAvg speedWind from/ knotsBaromVisibWave heightAir tempDewpointWater temp
2018-Jun-25 15:11N 33°54' W 118°28'1 3.8
2018-Jun-25 15:00N 33°54' W 118°28'1 2.5
2018-Jun-25 14:29N 33°54' W 118°30'3 5.2
2018-Jun-25 13:55N 33°52' W 118°27'2 1.4
2018-Jun-25 12:31N 33°54' W 118°27'0 3.3
2018-Jun-25 12:30N 33°54' W 118°27'0 0.3
2018-Jun-25 11:06N 33°54' W 118°27'0 0.0
2018-Jun-25 10:48N 33°54' W 118°27'0 0.0
2018-Jun-25 10:30N 33°54' W 118°27'  
2018-Jun-22 01:29N 33°51' W 118°24'0 0.0
2018-Jun-22 00:59N 33°51' W 118°24'0 0.0
2018-Jun-21 15:37N 33°51' W 118°24'5 0.1
2018-Jun-19 14:11N 33°54' W 118°27'  

Dump ship's entire track history